Time;durP1;ratioP1;P1;durP2;ratioP2;P2;SDS_P1;SDS_P2;PMS_P1;PMS_P2;Temp;Humidity;BMP_temperature;BMP_pressure;BME280_temperature;BME280_humidity;BME280_pressure;Samples;Min_cycle;Max_cycle;Signal;HPM_P1;HPM_P2
2022/03/25 00:00:36;;;;;;;7.30;5.60;;;;;;;2.03;82.69;99548.23;109117;1277;22446;-60
2022/03/25 00:03:06;;;;;;;10.30;6.50;;;;;;;2.04;82.82;99553.30;109025;1277;138206;-60
2022/03/25 00:05:34;;;;;;;8.70;6.40;;;;;;;2.07;82.93;99553.37;109032;1278;22405;-61
2022/03/25 00:08:03;;;;;;;8.40;6.30;;;;;;;2.11;82.58;99554.16;109013;1277;138826;-60
2022/03/25 00:10:51;;;;;;;6.50;5.10;;;;;;;2.13;82.71;99552.94;109133;1277;23566;-60
2022/03/25 00:13:19;;;;;;;6.40;4.60;;;;;;;2.15;82.63;99550.01;109118;1277;22412;-61
2022/03/25 00:15:51;;;;;;;5.80;4.60;;;;;;;2.19;82.61;99550.23;108968;1277;137580;-61
2022/03/25 00:18:20;;;;;;;7.70;4.80;;;;;;;2.22;82.51;99551.17;109157;1277;22610;-60
2022/03/25 00:20:53;;;;;;;8.90;5.50;;;;;;;2.27;82.53;99550.27;109052;1277;138028;-60
2022/03/25 00:23:22;;;;;;;10.00;6.20;;;;;;;2.30;82.81;99553.52;109107;1277;22452;-60
2022/03/25 00:25:52;;;;;;;9.60;5.10;;;;;;;2.32;82.36;99553.88;109003;1277;137623;-60
2022/03/25 00:28:20;;;;;;;8.50;5.80;;;;;;;2.31;82.10;99556.70;109113;1277;22438;-60
2022/03/25 00:30:49;;;;;;;7.10;5.80;;;;;;;2.29;82.01;99561.09;109094;1277;22511;-61
2022/03/25 00:33:18;;;;;;;9.20;6.30;;;;;;;2.24;81.98;99563.67;109015;1277;138548;-60
2022/03/25 00:35:46;;;;;;;5.90;4.90;;;;;;;2.19;81.99;99562.99;109140;1277;22445;-60
2022/03/25 00:38:14;;;;;;;6.30;5.10;;;;;;;2.12;81.89;99560.42;109042;1277;139568;-60
2022/03/25 00:40:44;;;;;;;5.20;4.60;;;;;;;2.08;81.74;99554.98;109137;1277;23223;-61
2022/03/25 00:43:12;;;;;;;6.80;4.60;;;;;;;2.06;82.04;99554.27;109129;1277;22230;-60
2022/03/25 00:45:42;;;;;;;6.10;4.70;;;;;;;2.06;82.21;99558.56;109025;1277;137850;-60
2022/03/25 00:48:10;;;;;;;5.40;4.30;;;;;;;2.06;82.00;99560.63;109131;1277;22316;-60
2022/03/25 00:50:38;;;;;;;5.20;4.40;;;;;;;2.08;82.17;99559.40;108957;1277;139721;-61
2022/03/25 00:53:07;;;;;;;5.70;4.20;;;;;;;2.10;82.37;99560.00;109153;1277;22499;-61
2022/03/25 00:55:37;;;;;;;5.90;4.20;;;;;;;2.12;81.97;99563.31;109031;1277;137992;-60
2022/03/25 00:58:08;;;;;;;4.50;3.90;;;;;;;2.14;82.07;99566.52;109061;1277;22428;-60
2022/03/25 01:00:37;;;;;;;6.80;4.70;;;;;;;2.15;82.08;99570.10;109046;1278;22370;-60
2022/03/25 01:03:07;;;;;;;6.10;4.50;;;;;;;2.15;81.91;99576.36;109043;1277;137425;-60
2022/03/25 01:05:36;;;;;;;6.10;5.20;;;;;;;2.14;81.65;99582.76;109116;1277;23154;-60
2022/03/25 01:08:06;;;;;;;5.90;4.70;;;;;;;2.11;81.97;99586.88;108950;1278;139167;-60
2022/03/25 01:10:38;;;;;;;5.70;4.70;;;;;;;2.07;81.90;99588.02;109081;1278;24934;-60
2022/03/25 01:13:08;;;;;;;6.60;5.10;;;;;;;2.04;82.16;99589.77;109160;1277;23519;-60
2022/03/25 01:15:36;;;;;;;7.10;5.20;;;;;;;2.02;81.89;99598.33;109051;1277;137675;-61
2022/03/25 01:18:05;;;;;;;8.50;6.10;;;;;;;2.00;82.34;99601.98;109039;1277;23202;-61
2022/03/25 01:20:35;;;;;;;6.20;4.90;;;;;;;1.98;82.32;99604.06;109007;1277;138262;-60
2022/03/25 01:23:04;;;;;;;8.00;5.90;;;;;;;1.97;82.43;99607.29;109050;1277;22444;-60
2022/03/25 01:25:34;;;;;;;8.30;5.80;;;;;;;1.98;82.44;99607.29;109060;1277;138010;-61
2022/03/25 01:28:02;;;;;;;6.10;5.00;;;;;;;1.99;82.59;99606.43;109146;1278;22485;-60
2022/03/25 01:30:31;;;;;;;7.20;5.30;;;;;;;2.02;82.63;99604.83;109165;1278;22546;-61
2022/03/25 01:33:00;;;;;;;6.30;5.10;;;;;;;2.02;82.87;99608.13;109017;1277;138783;-61
2022/03/25 01:35:29;;;;;;;7.10;5.80;;;;;;;2.06;82.82;99615.13;109028;1279;22435;-60
2022/03/25 01:37:57;;;;;;;10.20;7.50;;;;;;;2.09;82.87;99618.66;109056;1278;138641;-60
2022/03/25 01:40:27;;;;;;;11.60;8.00;;;;;;;2.12;82.91;99621.23;109075;1278;22421;-60
2022/03/25 01:42:56;;;;;;;14.90;8.90;;;;;;;2.12;82.80;99631.44;109112;1277;22588;-61
2022/03/25 01:45:34;;;;;;;13.20;9.40;;;;;;;2.08;82.77;99638.23;109012;1277;138323;-59
2022/03/25 01:48:11;;;;;;;12.40;9.50;;;;;;;2.03;83.30;99644.05;109114;1278;22384;-60
2022/03/25 01:50:41;;;;;;;12.60;8.60;;;;;;;2.02;83.15;99644.97;109018;1278;137775;-61
2022/03/25 01:53:30;;;;;;;12.40;8.90;;;;;;;2.01;83.43;99647.41;109141;1278;22396;-61
2022/03/25 01:55:59;;;;;;;13.60;9.10;;;;;;;2.00;83.47;99656.79;107599;1278;139877;-59
2022/03/25 01:58:30;;;;;;;18.90;10.80;;;;;;;1.97;83.70;99659.48;104782;1280;22617;-60
2022/03/25 02:00:59;;;;;;;16.40;10.70;;;;;;;1.96;83.98;99668.66;109114;1278;22441;-60
2022/03/25 02:03:27;;;;;;;16.00;11.50;;;;;;;1.96;83.92;99674.90;109000;1278;138705;-60
2022/03/25 02:05:58;;;;;;;17.10;11.60;;;;;;;1.95;84.19;99673.95;109147;1277;22507;-60
2022/03/25 02:08:26;;;;;;;17.20;12.00;;;;;;;1.94;84.46;99677.49;108937;1279;138929;-60
2022/03/25 02:11:15;;;;;;;16.90;10.50;;;;;;;1.95;84.24;99679.11;109002;1279;22515;-60
2022/03/25 02:13:44;;;;;;;18.50;11.80;;;;;;;1.98;84.35;99687.90;109067;1278;138432;-60
2022/03/25 02:16:42;;;;;;;;;;;;;;;2.01;84.56;99689.33;109112;1278;22754;-61
2022/03/25 02:19:16;;;;;;;23.30;13.10;;;;;;;2.00;84.69;99691.52;109023;1277;22394;-61
2022/03/25 02:22:06;;;;;;;22.00;12.30;;;;;;;2.01;84.53;99694.83;109019;1278;138885;-60
2022/03/25 02:24:35;;;;;;;22.20;13.90;;;;;;;2.02;84.50;99701.56;109036;1279;23649;-60
2022/03/25 02:27:04;;;;;;;21.70;14.60;;;;;;;2.02;84.64;99703.32;105556;1278;138113;-60
2022/03/25 02:29:45;;;;;;;23.40;14.60;;;;;;;2.02;84.85;99711.31;104538;1280;25280;-60
2022/03/25 02:32:13;;;;;;;22.50;15.60;;;;;;;2.01;84.89;99713.30;108920;1278;139980;-61
2022/03/25 02:34:42;;;;;;;26.60;16.70;;;;;;;2.01;84.93;99717.56;109138;1278;22459;-61
2022/03/25 02:37:13;;;;;;;31.60;17.10;;;;;;;2.01;85.14;99725.42;109045;1277;22403;-61
2022/03/25 02:39:42;;;;;;;25.20;15.20;;;;;;;2.01;85.23;99729.63;109005;1277;139080;-61
2022/03/25 02:42:11;;;;;;;23.10;15.60;;;;;;;1.99;85.30;99725.41;109109;1278;22420;-60
2022/03/25 02:44:42;;;;;;;24.70;15.30;;;;;;;2.01;85.24;99729.98;108949;1280;138164;-60
2022/03/25 02:47:10;;;;;;;25.20;15.80;;;;;;;2.03;85.28;99735.91;109148;1278;22519;-60
2022/03/25 02:49:41;;;;;;;26.40;17.20;;;;;;;2.05;85.35;99737.66;109110;1277;22469;-61
2022/03/25 02:52:09;;;;;;;29.30;17.90;;;;;;;2.06;85.67;99748.41;107174;1279;138616;-60
2022/03/25 02:54:37;;;;;;;33.50;21.60;;;;;;;2.04;85.64;99749.61;109000;1279;23403;-60
2022/03/25 02:57:05;;;;;;;35.30;21.60;;;;;;;2.00;85.77;99749.67;109043;1277;138945;-60
2022/03/25 02:59:34;;;;;;;33.70;21.80;;;;;;;1.94;85.86;99752.27;109162;1278;22420;-60
2022/03/25 03:02:02;;;;;;;32.60;21.40;;;;;;;1.93;85.70;99754.29;109014;1278;138222;-60
2022/03/25 03:04:31;;;;;;;32.80;20.60;;;;;;;1.91;86.17;99759.39;109144;1279;22403;-60
2022/03/25 03:07:04;;;;;;;31.80;19.70;;;;;;;1.88;86.42;99763.59;109173;1277;23717;-60
2022/03/25 03:09:32;;;;;;;34.70;19.90;;;;;;;1.86;86.40;99765.46;108951;1279;138786;-60
2022/03/25 03:12:06;;;;;;;32.50;19.10;;;;;;;1.87;86.53;99768.71;109189;1277;22331;-61
2022/03/25 03:14:36;;;;;;;35.10;20.80;;;;;;;1.89;86.69;99771.24;109076;1277;138111;-60
2022/03/25 03:17:19;;;;;;;29.80;20.00;;;;;;;1.92;86.63;99772.67;109173;1277;23448;-60
2022/03/25 03:19:48;;;;;;;37.10;21.70;;;;;;;1.95;86.87;99772.41;108980;1280;139249;-60
2022/03/25 03:22:36;;;;;;;;;;;;;;;1.99;86.75;99774.52;109108;1278;22482;-61
2022/03/25 03:25:05;;;;;;;37.10;21.60;;;;;;;2.01;86.81;99780.32;109041;1279;22539;-60
2022/03/25 03:27:34;;;;;;;38.40;22.60;;;;;;;2.01;87.01;99781.46;108996;1278;138180;-60
2022/03/25 03:30:08;;;;;;;36.50;23.00;;;;;;;2.03;86.89;99780.77;109065;1279;22443;-60
2022/03/25 03:32:37;;;;;;;39.30;23.90;;;;;;;2.04;86.96;99780.23;109016;1278;139838;-61
2022/03/25 03:35:07;;;;;;;32.90;21.70;;;;;;;2.06;87.33;99781.61;109105;1279;23199;-61
2022/03/25 03:37:44;;;;;;;38.90;24.50;;;;;;;2.08;87.36;99785.14;109178;1277;22602;-59
2022/03/25 03:40:12;;;;;;;34.20;24.00;;;;;;;2.11;87.43;99791.04;108936;1278;137892;-61
2022/03/25 03:42:42;;;;;;;39.90;25.90;;;;;;;2.12;87.17;99793.33;109154;1277;22515;-60
2022/03/25 03:45:11;;;;;;;36.70;25.30;;;;;;;2.13;86.95;99799.46;109014;1278;138037;-60
2022/03/25 03:47:41;;;;;;;39.30;25.90;;;;;;;2.13;87.18;99808.77;109068;1278;22462;-61
2022/03/25 03:50:11;;;;;;;39.80;24.70;;;;;;;2.13;86.97;99816.70;109040;1278;138276;-60
2022/03/25 03:52:40;;;;;;;35.30;24.40;;;;;;;2.12;86.88;99819.46;109164;1277;22455;-60
2022/03/25 03:55:08;;;;;;;38.20;24.30;;;;;;;2.11;86.47;99825.95;109104;1277;22688;-61
2022/03/25 03:57:37;;;;;;;38.30;23.90;;;;;;;2.08;85.85;99829.14;108926;1280;140100;-60
2022/03/25 04:00:12;;;;;;;40.20;22.80;;;;;;;2.08;85.70;99832.95;109097;1278;22409;-60
2022/03/25 04:02:41;;;;;;;36.10;23.90;;;;;;;2.07;85.51;99830.13;108995;1277;137938;-61
2022/03/25 04:05:13;;;;;;;40.00;23.50;;;;;;;2.10;85.47;99832.91;109101;1279;22413;-60
2022/03/25 04:07:43;;;;;;;39.40;23.10;;;;;;;2.12;85.57;99838.19;109107;1278;23506;-60
2022/03/25 04:10:12;;;;;;;41.40;25.70;;;;;;;2.13;85.13;99841.84;109009;1277;138506;-60
2022/03/25 04:12:40;;;;;;;34.60;23.70;;;;;;;2.11;84.84;99849.69;109189;1278;23007;-60
2022/03/25 04:15:10;;;;;;;39.40;25.80;;;;;;;2.12;84.92;99856.19;109050;1277;138538;-60
2022/03/25 04:17:42;;;;;;;43.60;27.70;;;;;;;2.12;84.63;99851.29;109157;1277;22604;-60
2022/03/25 04:20:27;;;;;;;39.60;25.70;;;;;;;2.12;84.56;99859.77;109000;1278;139007;-61
2022/03/25 04:22:55;;;;;;;45.20;26.40;;;;;;;2.12;84.25;99865.16;109146;1278;22437;-60
2022/03/25 04:25:23;;;;;;;37.60;24.00;;;;;;;2.13;84.10;99870.83;109136;1278;22400;-60
2022/03/25 04:28:11;;;;;;;33.90;23.50;;;;;;;2.14;84.04;99872.90;109077;1278;138290;-60
2022/03/25 04:30:41;;;;;;;38.10;24.50;;;;;;;2.16;83.53;99881.60;109161;1278;22535;-61
2022/03/25 04:33:09;;;;;;;34.40;21.50;;;;;;;2.18;83.42;99882.05;108883;1280;138332;-60
2022/03/25 04:35:38;;;;;;;33.20;21.50;;;;;;;2.20;83.25;99878.75;108242;1278;24238;-60
2022/03/25 04:38:06;;;;;;;43.30;25.20;;;;;;;2.24;82.68;99886.33;109039;1278;138330;-60
2022/03/25 04:40:36;;;;;;;36.10;23.80;;;;;;;2.26;82.31;99890.36;109153;1278;22548;-60
2022/03/25 04:43:05;;;;;;;34.70;21.70;;;;;;;2.27;82.24;99891.61;109228;1278;22388;-60
2022/03/25 04:45:34;;;;;;;36.10;22.00;;;;;;;2.30;81.78;99896.47;109090;1277;138175;-60
2022/03/25 04:48:04;;;;;;;34.60;20.50;;;;;;;2.32;81.46;99901.48;109148;1277;22262;-60
2022/03/25 04:50:32;;;;;;;33.20;20.80;;;;;;;2.34;81.07;99908.07;109013;1277;139081;-60
2022/03/25 04:53:00;;;;;;;35.00;20.70;;;;;;;2.37;80.65;99907.22;109099;1278;22256;-60
2022/03/25 04:55:29;;;;;;;33.70;20.60;;;;;;;2.40;80.50;99914.70;109137;1277;22516;-60
2022/03/25 04:57:57;;;;;;;30.50;20.70;;;;;;;2.42;79.84;99914.89;109070;1277;137615;-60
2022/03/25 05:00:30;;;;;;;27.60;17.50;;;;;;;2.46;79.75;99921.81;109123;1277;22924;-60
2022/03/25 05:02:59;;;;;;;29.70;19.70;;;;;;;2.48;79.32;99920.25;109046;1277;139378;-60
2022/03/25 05:05:27;;;;;;;31.10;19.80;;;;;;;2.52;78.99;99925.67;109170;1277;22451;-61
2022/03/25 05:08:15;;;;;;;30.40;19.70;;;;;;;2.56;78.66;99936.30;109096;1277;137875;-60
2022/03/25 05:10:44;;;;;;;25.80;15.70;;;;;;;2.58;78.20;99935.48;109166;1278;22558;-60
2022/03/25 05:13:29;;;;;;;21.10;13.70;;;;;;;2.61;77.34;99938.47;109207;1277;22548;-60
2022/03/25 05:15:58;;;;;;;23.90;13.60;;;;;;;2.66;76.33;99943.52;109101;1277;139655;-61
2022/03/25 05:18:26;;;;;;;20.40;12.30;;;;;;;2.70;76.07;99948.14;109153;1277;23689;-60
2022/03/25 05:20:54;;;;;;;19.10;12.30;;;;;;;2.75;75.66;99959.71;109046;1277;137514;-60
2022/03/25 05:23:24;;;;;;;19.10;12.40;;;;;;;2.80;75.18;99958.84;109180;1277;22401;-61
2022/03/25 05:25:53;;;;;;;20.30;12.80;;;;;;;2.87;75.29;99964.20;109088;1277;138457;-60
2022/03/25 05:28:21;;;;;;;19.30;12.10;;;;;;;2.95;74.56;99968.95;109216;1277;22437;-60
2022/03/25 05:30:49;;;;;;;19.50;12.90;;;;;;;3.03;74.35;99976.91;109162;1277;22241;-60
2022/03/25 05:33:17;;;;;;;21.50;13.20;;;;;;;3.10;73.81;99977.20;109068;1277;138521;-61
2022/03/25 05:35:46;;;;;;;22.60;10.40;;;;;;;3.14;72.57;99982.83;109202;1277;22506;-60
2022/03/25 05:38:14;;;;;;;16.60;11.30;;;;;;;3.17;71.50;99982.22;109080;1277;139559;-60
2022/03/25 05:40:43;;;;;;;16.10;10.90;;;;;;;3.18;71.15;99989.66;109168;1277;22533;-60
2022/03/25 05:43:12;;;;;;;16.80;11.50;;;;;;;3.22;71.76;99991.63;109134;1277;23486;-60
2022/03/25 05:45:41;;;;;;;21.00;13.20;;;;;;;3.25;71.68;100000.02;109118;1277;138526;-60
2022/03/25 05:48:09;;;;;;;20.80;12.30;;;;;;;3.27;71.69;100003.52;109156;1277;22422;-60
2022/03/25 05:50:38;;;;;;;22.70;12.30;;;;;;;3.31;71.30;100004.10;109099;1277;138028;-60
2022/03/25 05:53:06;;;;;;;18.70;12.30;;;;;;;3.33;71.05;100006.81;109160;1277;22499;-61
2022/03/25 05:55:39;;;;;;;18.00;11.40;;;;;;;3.36;70.51;100013.87;109161;1277;22425;-61
2022/03/25 05:58:08;;;;;;;19.20;11.50;;;;;;;3.37;70.30;100020.98;109043;1277;138722;-61
2022/03/25 06:00:37;;;;;;;17.10;12.40;;;;;;;3.38;70.45;100024.09;109150;1277;22407;-61
2022/03/25 06:03:06;;;;;;;20.40;13.60;;;;;;;3.42;71.04;100029.02;109059;1277;138640;-61
2022/03/25 06:05:38;;;;;;;21.20;13.00;;;;;;;3.45;71.27;100031.80;109152;1277;23220;-61
2022/03/25 06:08:23;;;;;;;18.70;11.30;;;;;;;3.49;71.14;100036.56;108999;1277;138481;-61
2022/03/25 06:10:51;;;;;;;18.00;11.90;;;;;;;3.50;70.53;100035.16;109185;1277;22448;-61
2022/03/25 06:15:16;;;;;;;17.90;12.80;;;;;;;3.60;70.74;100033.52;101741;1308;545250;-60
2022/03/25 06:17:48;;;;;;;25.00;13.80;;;;;;;3.60;70.46;100037.96;108183;1287;23598;-60
2022/03/25 06:20:18;;;;;;;17.70;13.00;;;;;;;3.64;70.56;100040.66;108090;1286;138060;-59
2022/03/25 06:22:46;;;;;;;18.20;11.90;;;;;;;3.68;70.46;100041.47;108189;1288;22455;-60
2022/03/25 06:25:34;;;;;;;16.70;10.60;;;;;;;3.73;70.42;100049.05;108169;1288;22409;-59
2022/03/25 06:28:04;;;;;;;16.10;10.70;;;;;;;3.79;70.11;100048.85;107879;1286;163651;-60
2022/03/25 06:30:34;;;;;;;18.90;10.70;;;;;;;3.86;68.80;100053.41;108456;1285;22597;-60
2022/03/25 06:33:04;;;;;;;18.20;11.80;;;;;;;3.87;67.98;100053.80;108166;1285;137623;-60
2022/03/25 06:35:33;;;;;;;19.30;12.10;;;;;;;3.88;67.96;100058.11;108352;1286;22868;-60
2022/03/25 06:38:05;;;;;;;16.10;11.40;;;;;;;3.92;67.98;100062.83;108178;1286;138052;-60
2022/03/25 06:40:33;;;;;;;14.30;9.40;;;;;;;3.96;67.79;100062.11;108145;1286;22480;-60
2022/03/25 06:43:02;;;;;;;16.10;10.80;;;;;;;4.01;66.95;100064.67;108330;1286;22601;-60
2022/03/25 06:45:31;;;;;;;15.00;10.30;;;;;;;4.03;67.44;100067.21;108302;1286;138190;-60
2022/03/25 06:48:00;;;;;;;14.90;10.10;;;;;;;4.07;67.49;100068.81;108428;1285;22516;-60
2022/03/25 06:50:29;;;;;;;15.90;10.30;;;;;;;4.11;66.91;100071.29;108307;1286;137937;-60
2022/03/25 06:53:00;;;;;;;17.30;10.10;;;;;;;4.15;66.83;100070.77;108389;1286;22496;-60
2022/03/25 06:55:30;;;;;;;13.70;9.80;;;;;;;4.18;65.82;100070.36;108441;1286;22370;-60
2022/03/25 06:57:59;;;;;;;18.20;10.90;;;;;;;4.21;65.95;100073.52;108306;1286;137612;-60
2022/03/25 07:00:28;;;;;;;15.50;10.10;;;;;;;4.28;66.20;100067.89;108390;1286;22612;-60
2022/03/25 07:02:57;;;;;;;11.80;8.70;;;;;;;4.36;65.86;100074.91;108302;1286;137602;-60
2022/03/25 07:05:26;;;;;;;10.80;7.90;;;;;;;4.42;65.74;100078.60;108411;1285;23407;-60
2022/03/25 07:07:55;;;;;;;13.20;8.50;;;;;;;4.49;65.12;100080.55;108250;1285;138039;-59
2022/03/25 07:10:23;;;;;;;12.20;7.90;;;;;;;4.56;65.04;100088.20;108371;1284;22436;-60
2022/03/25 07:12:54;;;;;;;11.20;8.40;;;;;;;4.64;63.38;100087.52;108373;1285;22529;-60
2022/03/25 07:15:24;;;;;;;11.40;7.90;;;;;;;4.71;63.62;100092.21;108326;1285;137236;-60
2022/03/25 07:17:52;;;;;;;9.50;7.00;;;;;;;4.79;63.03;100092.25;108414;1284;22505;-60
2022/03/25 07:20:22;;;;;;;12.00;7.90;;;;;;;4.87;61.89;100090.78;108292;1285;138107;-60
2022/03/25 07:23:06;;;;;;;11.70;7.50;;;;;;;4.95;61.20;100091.60;108354;1286;22469;-60
2022/03/25 07:25:35;;;;;;;12.70;8.20;;;;;;;5.04;60.39;100093.80;108393;1285;23253;-60
2022/03/25 07:28:03;;;;;;;12.10;8.10;;;;;;;5.15;59.19;100091.60;108295;1286;137198;-60
2022/03/25 07:30:32;;;;;;;11.00;7.40;;;;;;;5.22;58.93;100093.86;108346;1286;22449;-60
2022/03/25 07:33:00;;;;;;;12.60;7.90;;;;;;;5.27;59.26;100093.55;108241;1286;137805;-60
2022/03/25 07:35:30;;;;;;;10.40;7.40;;;;;;;5.36;59.01;100094.33;108378;1286;22938;-59
2022/03/25 07:37:59;;;;;;;14.20;9.70;;;;;;;5.46;57.21;100093.77;108280;1286;137709;-58
2022/03/25 07:40:28;;;;;;;13.20;9.70;;;;;;;5.54;56.26;100101.02;108425;1285;22452;-61
2022/03/25 07:42:58;;;;;;;17.20;10.80;;;;;;;5.57;56.39;100100.19;108332;1285;22464;-60
2022/03/25 07:45:26;;;;;;;13.80;9.90;;;;;;;5.62;57.39;100100.26;107675;1285;138130;-60
2022/03/25 07:47:55;;;;;;;11.50;9.60;;;;;;;5.71;57.09;100100.81;108350;1286;22512;-60
2022/03/25 07:50:23;;;;;;;15.10;11.20;;;;;;;5.81;57.20;100098.65;108237;1286;138925;-60
2022/03/25 07:52:51;;;;;;;14.50;9.40;;;;;;;5.90;56.54;100102.16;108388;1285;23139;-60
2022/03/25 07:55:20;;;;;;;14.60;9.70;;;;;;;5.96;56.24;100103.34;108392;1286;22282;-60
2022/03/25 07:57:49;;;;;;;15.00;10.20;;;;;;;6.01;56.34;100108.79;108226;1286;137598;-60
2022/03/25 08:00:19;;;;;;;14.70;11.50;;;;;;;6.04;56.00;100109.10;108398;1286;22470;-60
2022/03/25 08:02:49;;;;;;;17.80;11.50;;;;;;;6.09;54.66;100113.36;108286;1285;137503;-61
2022/03/25 08:05:18;;;;;;;15.50;11.60;;;;;;;6.07;54.16;100118.61;108378;1285;22481;-60
2022/03/25 08:07:52;;;;;;;14.90;10.40;;;;;;;6.02;55.11;100119.89;108378;1285;22461;-60
2022/03/25 08:10:21;;;;;;;18.40;12.10;;;;;;;6.02;56.27;100122.10;108264;1286;138318;-60
2022/03/25 08:13:10;;;;;;;18.90;12.40;;;;;;;6.07;56.33;100120.81;108320;1286;22640;-60
2022/03/25 08:15:38;;;;;;;15.60;11.20;;;;;;;6.12;57.20;100126.95;108225;1286;137994;-60
2022/03/25 08:18:07;;;;;;;16.30;11.40;;;;;;;6.18;56.48;100125.75;108367;1285;22495;-60
2022/03/25 08:20:41;;;;;;;19.00;11.70;;;;;;;6.22;56.44;100127.78;108187;1286;138041;-60
2022/03/25 08:27:48;;;;;;;15.90;11.30;;;;;;;6.24;56.36;100130.48;108267;1286;22422;-60
2022/03/25 08:29:12;;;;;;;14.10;10.50;;;;;;;6.34;57.44;100137.70;107796;1290;23174;-60
2022/03/25 08:31:45;;;;;;;15.50;11.00;;;;;;;6.36;57.60;100137.05;107759;1290;22408;-60
2022/03/25 08:34:15;;;;;;;14.80;9.80;;;;;;;6.37;57.17;100138.75;107578;1290;139211;-60
2022/03/25 08:36:45;;;;;;;15.50;10.50;;;;;;;6.38;57.82;100141.33;107747;1290;22470;-60
2022/03/25 08:39:14;;;;;;;15.00;11.50;;;;;;;6.40;57.31;100139.83;107484;1292;139060;-60
2022/03/25 08:41:42;;;;;;;13.30;9.80;;;;;;;6.39;57.75;100140.33;107847;1290;23156;-60
2022/03/25 08:44:10;;;;;;;17.30;11.50;;;;;;;6.41;58.34;100138.20;107740;1290;137459;-60
2022/03/25 08:46:40;;;;;;;16.60;11.10;;;;;;;6.48;57.97;100143.41;107853;1290;22399;-60
2022/03/25 08:49:11;;;;;;;15.40;10.10;;;;;;;6.55;57.97;100143.83;107779;1290;22448;-60
2022/03/25 08:51:39;;;;;;;17.00;11.50;;;;;;;6.59;57.63;100143.98;107631;1290;138458;-60
2022/03/25 08:54:09;;;;;;;13.70;10.20;;;;;;;6.61;57.36;100144.94;107756;1290;22473;-60
2022/03/25 08:56:38;;;;;;;13.60;9.60;;;;;;;6.61;57.77;100145.23;107729;1290;138033;-60
2022/03/25 08:59:08;;;;;;;13.10;9.70;;;;;;;6.65;57.40;100151.01;107738;1290;22457;-60
2022/03/25 09:01:36;;;;;;;14.30;10.50;;;;;;;6.69;57.06;100148.45;108327;1287;23263;-60
2022/03/25 09:04:05;;;;;;;16.00;10.70;;;;;;;6.71;57.62;100152.33;108229;1287;137450;-60
2022/03/25 09:06:34;;;;;;;14.40;10.50;;;;;;;6.73;57.74;100148.90;108382;1286;22452;-60
2022/03/25 09:09:22;;;;;;;;;;;;;;;6.77;58.03;100152.41;108257;1286;138157;-59
2022/03/25 09:11:51;;;;;;;12.10;8.90;;;;;;;6.80;58.89;100152.67;108215;1287;22440;-60
2022/03/25 09:14:39;;;;;;;;;;;;;;;6.87;58.53;100152.23;108059;1287;139551;-60
2022/03/25 09:17:15;;;;;;;12.40;8.60;;;;;;;6.91;57.73;100149.75;108248;1286;23079;-60
2022/03/25 09:19:47;;;;;;;12.10;9.30;;;;;;;6.90;57.71;100153.38;108036;1289;23200;-60
2022/03/25 09:22:15;;;;;;;14.10;10.60;;;;;;;6.89;57.38;100153.17;107998;1287;138256;-60
2022/03/25 09:24:44;;;;;;;12.90;9.20;;;;;;;6.86;57.01;100156.98;108117;1287;23309;-60
2022/03/25 09:27:12;;;;;;;15.20;9.50;;;;;;;6.86;57.50;100161.66;104403;1287;138214;-59
2022/03/25 09:29:40;;;;;;;12.90;9.20;;;;;;;6.89;57.65;100162.59;108230;1287;23264;-60
2022/03/25 09:32:09;;;;;;;13.30;9.50;;;;;;;6.92;56.92;100159.94;107975;1287;137451;-60
2022/03/25 09:37:41;;;;;;;11.80;8.70;;;;;;;6.97;56.38;100162.32;108202;1287;23192;-60
2022/03/25 09:40:12;;;;;;;11.60;8.70;;;;;;;7.00;56.08;100161.17;108025;1287;138210;-60
2022/03/25 09:42:41;;;;;;;11.30;8.50;;;;;;;7.02;55.31;100157.67;108243;1287;22503;-60
2022/03/25 09:45:11;;;;;;;11.50;8.60;;;;;;;7.04;55.83;100157.16;107954;1289;138102;-60
2022/03/25 09:47:40;;;;;;;12.20;8.90;;;;;;;7.10;55.30;100160.69;108152;1287;22468;-60
2022/03/25 09:50:12;;;;;;;14.60;8.60;;;;;;;7.16;54.32;100162.85;107968;1287;138595;-60
2022/03/25 09:52:42;;;;;;;14.00;9.20;;;;;;;7.18;53.61;100161.69;108070;1289;22636;-60
2022/03/25 09:55:31;;;;;;;11.00;8.80;;;;;;;7.18;54.31;100160.05;108048;1289;22433;-61
2022/03/25 09:58:00;;;;;;;10.70;8.30;;;;;;;7.20;53.85;100158.13;107776;1289;138612;-61
2022/03/25 10:00:30;;;;;;;11.80;8.90;;;;;;;7.24;54.62;100162.36;108057;1289;22409;-61
2022/03/25 10:02:59;;;;;;;11.00;7.60;;;;;;;7.31;54.10;100163.73;107981;1289;137009;-62
2022/03/25 10:05:27;;;;;;;11.40;7.90;;;;;;;7.34;54.05;100161.30;108051;1289;22449;-61
2022/03/25 10:07:55;;;;;;;10.70;7.80;;;;;;;7.37;53.84;100166.21;108011;1289;22713;-61
2022/03/25 10:10:29;;;;;;;12.30;8.70;;;;;;;7.43;53.31;100164.55;107810;1289;137859;-61
2022/03/25 10:13:02;;;;;;;10.40;8.20;;;;;;;7.47;52.91;100164.69;108037;1287;22525;-61
2022/03/25 10:15:32;;;;;;;11.40;7.80;;;;;;;7.51;52.31;100165.07;108121;1287;138677;-61
2022/03/25 10:18:03;;;;;;;11.60;7.70;;;;;;;7.53;51.16;100167.84;108322;1285;22730;-60
2022/03/25 10:20:52;;;;;;;11.80;8.00;;;;;;;7.52;51.34;100167.80;108209;1286;138097;-60
2022/03/25 10:23:21;;;;;;;9.80;7.90;;;;;;;7.53;51.88;100169.84;108323;1286;22290;-60
2022/03/25 10:25:56;;;;;;;10.40;7.90;;;;;;;7.54;52.03;100169.55;108346;1286;23654;-60
2022/03/25 10:28:31;;;;;;;9.40;7.30;;;;;;;7.57;51.82;100171.14;108251;1286;137428;-60
2022/03/25 10:31:05;;;;;;;8.40;7.10;;;;;;;7.60;51.62;100164.98;108376;1286;22535;-60
2022/03/25 10:33:57;;;;;;;14.20;7.30;;;;;;;7.61;51.52;100167.16;108255;1285;138343;-59
2022/03/25 10:36:26;;;;;;;9.70;7.20;;;;;;;7.64;51.71;100169.14;108713;1282;22432;-60
2022/03/25 10:39:00;;;;;;;11.80;7.30;;;;;;;7.66;51.52;100166.42;108565;1283;138054;-59
2022/03/25 10:41:49;;;;;;;8.70;6.60;;;;;;;7.73;50.80;100169.33;108659;1282;23210;-59
2022/03/25 10:44:19;;;;;;;14.00;8.40;;;;;;;7.77;50.57;100162.74;108561;1283;138184;-61
2022/03/25 10:46:53;;;;;;;10.70;8.10;;;;;;;7.80;50.23;100162.31;108627;1282;23294;-61
2022/03/25 10:49:23;;;;;;;10.60;7.50;;;;;;;7.82;50.21;100161.92;108658;1283;22436;-60
2022/03/25 10:51:55;;;;;;;11.20;7.70;;;;;;;7.87;49.99;100162.34;108341;1284;137732;-59
2022/03/25 10:54:25;;;;;;;10.00;6.90;;;;;;;7.92;50.06;100162.30;108663;1282;22461;-60
2022/03/25 10:56:55;;;;;;;11.10;7.50;;;;;;;7.95;49.85;100164.08;108581;1283;138399;-60
2022/03/25 10:59:31;;;;;;;8.40;7.40;;;;;;;7.98;49.97;100164.72;108691;1282;22485;-60
2022/03/25 11:02:06;;;;;;;8.90;7.00;;;;;;;8.03;50.05;100164.96;108696;1283;22627;-60
2022/03/25 11:04:35;;;;;;;10.00;7.80;;;;;;;8.09;49.94;100162.05;108586;1282;137051;-60
2022/03/25 11:07:04;;;;;;;10.00;7.60;;;;;;;8.12;48.74;100157.59;108674;1283;22535;-60
2022/03/25 11:09:41;;;;;;;9.90;7.00;;;;;;;8.15;48.50;100157.14;108540;1283;138062;-60
2022/03/25 11:12:10;;;;;;;12.00;8.20;;;;;;;8.18;48.41;100149.89;108676;1282;22535;-60
2022/03/25 11:14:39;;;;;;;10.20;7.30;;;;;;;8.19;48.12;100151.23;108595;1283;138826;-60
2022/03/25 11:17:09;;;;;;;9.60;7.60;;;;;;;8.21;48.45;100151.34;108678;1283;22404;-61
2022/03/25 11:19:59;;;;;;;9.00;7.10;;;;;;;8.23;48.68;100149.04;108441;1282;22486;-60
2022/03/25 11:22:27;;;;;;;9.90;7.20;;;;;;;8.25;48.65;100151.67;108273;1283;138941;-60
2022/03/25 11:24:56;;;;;;;11.30;7.90;;;;;;;8.29;48.45;100152.42;108433;1283;22427;-60
2022/03/25 11:27:29;;;;;;;12.40;7.80;;;;;;;8.31;47.99;100151.29;108361;1281;138604;-60
2022/03/25 11:30:01;;;;;;;14.00;8.80;;;;;;;8.32;47.71;100149.41;108680;1283;22456;-60
2022/03/25 11:32:29;;;;;;;12.10;7.80;;;;;;;8.35;47.42;100149.92;108294;1283;137553;-60
2022/03/25 11:34:57;;;;;;;13.20;8.10;;;;;;;8.38;47.16;100152.29;108665;1283;22437;-60
2022/03/25 11:37:28;;;;;;;10.90;7.90;;;;;;;8.40;47.45;100150.93;104594;1283;22657;-61
2022/03/25 11:40:14;;;;;;;11.80;7.60;;;;;;;8.43;47.59;100150.36;108548;1282;138186;-61
2022/03/25 11:42:44;;;;;;;10.70;7.70;;;;;;;8.46;47.52;100153.83;108627;1282;23088;-61